Time;durP1;ratioP1;P1;durP2;ratioP2;P2;SDS_P1;SDS_P2;PMS_P1;PMS_P2;Temp;Humidity;BMP_temperature;BMP_pressure;BME280_temperature;BME280_humidity;BME280_pressure;Samples;Min_cycle;Max_cycle;Signal;HPM_P1;HPM_P2
2022/07/17 00:00:06;;;;;;;0.37;0.37;;;;;;;;;;6196941;28;20029;-76
2022/07/17 00:03:06;;;;;;;0.20;0.20;;;;;;;;;;6196385;28;20257;-75
2022/07/17 00:06:07;;;;;;;0.20;0.20;;;;;;;;;;6198767;28;20474;-75
2022/07/17 00:09:07;;;;;;;0.35;0.35;;;;;;;;;;6196938;28;20014;-76
2022/07/17 00:12:07;;;;;;;0.17;0.17;;;;;;;;;;6211866;28;20011;-75
2022/07/17 00:15:07;;;;;;;0.27;0.27;;;;;;;;;;6206515;28;20487;-76
2022/07/17 00:18:08;;;;;;;0.20;0.20;;;;;;;;;;6196432;28;20261;-75
2022/07/17 00:21:08;;;;;;;0.40;0.40;;;;;;;;;;6203707;28;20026;-75
2022/07/17 00:24:10;;;;;;;0.22;0.22;;;;;;;;;;6212003;28;20558;-76
2022/07/17 00:27:10;;;;;;;0.20;0.20;;;;;;;;;;6202544;28;20093;-76
2022/07/17 00:30:12;;;;;;;0.10;0.10;;;;;;;;;;6202411;28;20401;-76
2022/07/17 00:33:12;;;;;;;12.57;2.20;;;;;;;;;;6202519;28;20257;-76
2022/07/17 00:36:12;;;;;;;1.15;1.08;;;;;;;;;;6199885;28;20041;-76
2022/07/17 00:39:13;;;;;;;0.13;0.13;;;;;;;;;;6204532;28;20050;-76
2022/07/17 00:42:14;;;;;;;1.30;1.30;;;;;;;;;;6202054;28;20646;-76
2022/07/17 00:45:14;;;;;;;0.20;0.20;;;;;;;;;;6201039;28;20050;-75
2022/07/17 00:48:14;;;;;;;0.55;0.55;;;;;;;;;;6199409;28;20022;-76
2022/07/17 00:51:14;;;;;;;1.00;1.00;;;;;;;;;;6200320;28;20076;-76
2022/07/17 00:54:15;;;;;;;0.47;0.47;;;;;;;;;;6200298;28;20101;-76
2022/07/17 00:57:15;;;;;;;0.20;0.20;;;;;;;;;;6201467;28;20026;-76
2022/07/17 01:00:16;;;;;;;0.43;0.43;;;;;;;;;;6207472;28;20446;-76
2022/07/17 01:03:17;;;;;;;0.20;0.20;;;;;;;;;;6205953;28;20030;-75
2022/07/17 01:06:18;;;;;;;23.15;1.60;;;;;;;;;;6204218;28;20028;-75
2022/07/17 01:09:18;;;;;;;0.20;0.20;;;;;;;;;;6199717;28;20386;-75
2022/07/17 01:12:18;;;;;;;0.60;0.60;;;;;;;;;;6196483;28;20046;-76
2022/07/17 01:15:18;;;;;;;0.20;0.20;;;;;;;;;;6199072;28;20030;-76
2022/07/17 01:18:19;;;;;;;0.23;0.23;;;;;;;;;;6198694;28;20034;-76
2022/07/17 01:21:19;;;;;;;0.20;0.20;;;;;;;;;;6199028;28;20333;-76
2022/07/17 01:24:20;;;;;;;1.20;1.20;;;;;;;;;;6203548;28;20026;-76
2022/07/17 01:27:20;;;;;;;0.60;0.60;;;;;;;;;;6204337;28;20018;-76
2022/07/17 01:30:20;;;;;;;1.80;1.65;;;;;;;;;;6201655;28;20072;-77
2022/07/17 01:33:20;;;;;;;0.40;0.40;;;;;;;;;;6201009;28;20023;-76
2022/07/17 01:36:22;;;;;;;0.55;0.55;;;;;;;;;;6201284;28;20352;-76
2022/07/17 01:39:52;;;;;;;0.20;0.20;;;;;;;;;;6204915;28;20014;-76
2022/07/17 01:42:43;;;;;;;0.28;0.28;;;;;;;;;;6196915;28;20064;-77
2022/07/17 01:45:43;;;;;;;0.20;0.20;;;;;;;;;;6203595;28;20483;-76
2022/07/17 01:48:43;;;;;;;0.20;0.20;;;;;;;;;;6195557;28;20023;-76
2022/07/17 01:51:43;;;;;;;0.20;0.20;;;;;;;;;;6201269;28;20056;-76
2022/07/17 01:54:44;;;;;;;0.23;0.23;;;;;;;;;;6200180;28;20026;-76
2022/07/17 01:57:44;;;;;;;0.20;0.20;;;;;;;;;;6200110;28;20755;-76
2022/07/17 02:00:45;;;;;;;0.20;0.20;;;;;;;;;;6199219;28;20023;-76
2022/07/17 02:03:45;;;;;;;0.52;0.52;;;;;;;;;;6200542;28;20313;-76
2022/07/17 02:06:45;;;;;;;0.20;0.20;;;;;;;;;;6204485;28;20475;-76
2022/07/17 02:09:45;;;;;;;0.20;0.20;;;;;;;;;;6201989;28;20629;-75
2022/07/17 02:12:45;;;;;;;0.60;0.60;;;;;;;;;;6198598;28;20685;-76
2022/07/17 02:15:46;;;;;;;0.20;0.20;;;;;;;;;;6214966;28;20268;-75
2022/07/17 02:18:46;;;;;;;0.30;0.30;;;;;;;;;;6202391;28;20022;-76
2022/07/17 02:21:46;;;;;;;0.10;0.10;;;;;;;;;;6195079;28;20153;-76
2022/07/17 02:24:47;;;;;;;0.25;0.25;;;;;;;;;;6198931;28;20404;-76
2022/07/17 02:27:47;;;;;;;0.30;0.30;;;;;;;;;;6209678;28;20763;-76
2022/07/17 02:30:47;;;;;;;0.10;0.10;;;;;;;;;;6205945;28;20284;-76
2022/07/17 02:33:47;;;;;;;0.47;0.47;;;;;;;;;;6201467;28;20387;-76
2022/07/17 02:36:47;;;;;;;0.30;0.30;;;;;;;;;;6208321;28;20372;-76
2022/07/17 02:39:54;;;;;;;0.20;0.20;;;;;;;;;;6207999;28;20268;-76
2022/07/17 02:42:54;;;;;;;0.90;0.90;;;;;;;;;;6203731;28;20649;-76
2022/07/17 02:45:54;;;;;;;0.10;0.10;;;;;;;;;;6202708;28;20033;-76
2022/07/17 02:48:54;;;;;;;0.73;0.73;;;;;;;;;;6198426;28;20365;-76
2022/07/17 02:51:54;;;;;;;0.90;0.90;;;;;;;;;;6195652;28;20269;-75
2022/07/17 02:54:55;;;;;;;0.60;0.60;;;;;;;;;;6197235;28;20664;-75
2022/07/17 02:57:55;;;;;;;0.83;0.83;;;;;;;;;;6196372;28;20022;-75
2022/07/17 03:00:55;;;;;;;0.77;0.77;;;;;;;;;;6193873;28;20297;-75
2022/07/17 03:03:55;;;;;;;0.20;0.20;;;;;;;;;;6194719;28;20281;-75
2022/07/17 03:06:55;;;;;;;0.45;0.45;;;;;;;;;;6195861;28;20052;-75
2022/07/17 03:09:56;;;;;;;0.20;0.20;;;;;;;;;;6202589;28;20385;-75
2022/07/17 03:12:56;;;;;;;0.73;0.73;;;;;;;;;;6196512;28;20277;-75
2022/07/17 03:15:56;;;;;;;0.22;0.22;;;;;;;;;;6198613;28;20018;-75
2022/07/17 03:18:56;;;;;;;0.10;0.10;;;;;;;;;;6197768;28;20026;-76
2022/07/17 03:21:56;;;;;;;0.40;0.40;;;;;;;;;;6203459;28;20074;-75
2022/07/17 03:24:57;;;;;;;0.83;0.83;;;;;;;;;;6196754;28;20698;-75
2022/07/17 03:27:57;;;;;;;0.50;0.50;;;;;;;;;;6196868;28;20268;-76
2022/07/17 03:30:57;;;;;;;0.53;0.53;;;;;;;;;;6196927;28;20744;-76
2022/07/17 03:33:57;;;;;;;0.20;0.20;;;;;;;;;;6195526;28;20358;-75
2022/07/17 03:36:57;;;;;;;0.27;0.27;;;;;;;;;;6200043;28;20280;-75
2022/07/17 03:39:58;;;;;;;5.50;1.27;;;;;;;;;;6197823;28;20273;-75
2022/07/17 03:42:58;;;;;;;0.40;0.40;;;;;;;;;;6197747;28;20349;-76
2022/07/17 03:45:58;;;;;;;0.20;0.20;;;;;;;;;;6197743;28;20471;-75
2022/07/17 03:48:58;;;;;;;0.27;0.27;;;;;;;;;;6197167;28;20265;-75
2022/07/17 03:51:59;;;;;;;0.20;0.20;;;;;;;;;;6192425;28;20738;-76
2022/07/17 03:54:59;;;;;;;0.20;0.20;;;;;;;;;;6195664;28;20022;-75
2022/07/17 03:57:59;;;;;;;0.30;0.30;;;;;;;;;;6202474;28;20479;-76
2022/07/17 04:01:00;;;;;;;0.52;0.52;;;;;;;;;;6199723;28;20042;-76
2022/07/17 04:04:01;;;;;;;0.40;0.40;;;;;;;;;;6196374;28;20030;-75
2022/07/17 04:07:01;;;;;;;2.28;1.13;;;;;;;;;;6197429;28;20022;-75
2022/07/17 04:10:01;;;;;;;0.73;0.73;;;;;;;;;;6194657;28;20023;-75
2022/07/17 04:13:01;;;;;;;2.20;1.55;;;;;;;;;;6195426;28;20014;-76
2022/07/17 04:16:02;;;;;;;1.03;0.93;;;;;;;;;;6197896;28;20050;-75
2022/07/17 04:19:02;;;;;;;0.30;0.30;;;;;;;;;;6196061;28;20033;-75
2022/07/17 04:22:02;;;;;;;1.20;1.10;;;;;;;;;;6195237;28;20018;-76
2022/07/17 04:25:02;;;;;;;1.95;1.85;;;;;;;;;;6196301;28;20348;-76
2022/07/17 04:28:03;;;;;;;0.20;0.20;;;;;;;;;;6197001;28;20021;-76
2022/07/17 04:31:03;;;;;;;0.88;0.88;;;;;;;;;;6201965;28;20094;-77
2022/07/17 04:34:03;;;;;;;0.40;0.40;;;;;;;;;;6197360;28;20548;-76
2022/07/17 04:37:03;;;;;;;1.33;1.33;;;;;;;;;;6195223;28;20042;-76
2022/07/17 04:40:04;;;;;;;0.20;0.20;;;;;;;;;;6196764;28;20261;-76
2022/07/17 04:43:05;;;;;;;0.20;0.20;;;;;;;;;;6196488;28;20269;-77
2022/07/17 04:46:05;;;;;;;0.47;0.47;;;;;;;;;;6200229;28;20042;-77
2022/07/17 04:49:06;;;;;;;0.22;0.22;;;;;;;;;;6195345;28;20064;-77
2022/07/17 04:52:06;;;;;;;1.90;1.30;;;;;;;;;;6189027;28;20077;-77
2022/07/17 04:55:06;;;;;;;0.30;0.30;;;;;;;;;;6201496;28;20265;-77
2022/07/17 04:58:07;;;;;;;0.10;0.10;;;;;;;;;;6201927;28;20110;-76
2022/07/17 05:01:07;;;;;;;1.17;1.17;;;;;;;;;;6195258;28;20018;-77
2022/07/17 05:04:07;;;;;;;0.30;0.30;;;;;;;;;;6198752;28;20050;-77
2022/07/17 05:07:07;;;;;;;12.70;2.53;;;;;;;;;;6200842;28;20861;-77
2022/07/17 05:10:08;;;;;;;0.20;0.20;;;;;;;;;;6202169;28;20027;-77
2022/07/17 05:13:08;;;;;;;0.15;0.15;;;;;;;;;;6203832;28;20037;-76
2022/07/17 05:16:09;;;;;;;0.10;0.10;;;;;;;;;;6205524;28;20022;-77
2022/07/17 05:19:09;;;;;;;0.10;0.10;;;;;;;;;;6203678;28;20264;-77
2022/07/17 05:22:09;;;;;;;0.52;0.52;;;;;;;;;;6201666;28;20540;-77
2022/07/17 05:25:09;;;;;;;0.43;0.43;;;;;;;;;;6202332;28;20054;-77
2022/07/17 05:28:09;;;;;;;0.23;0.23;;;;;;;;;;6185866;28;20019;-77
2022/07/17 05:31:10;;;;;;;0.00;0.00;;;;;;;;;;6196075;28;20133;-78
2022/07/17 05:34:10;;;;;;;0.10;0.10;;;;;;;;;;6199692;28;20030;-79
2022/07/17 05:37:10;;;;;;;0.60;0.60;;;;;;;;;;6222823;28;20100;-79
2022/07/17 05:40:10;;;;;;;0.10;0.10;;;;;;;;;;6203827;28;20452;-79
2022/07/17 05:43:11;;;;;;;0.57;0.50;;;;;;;;;;6203292;28;20487;-79
2022/07/17 05:46:11;;;;;;;0.20;0.20;;;;;;;;;;6203495;28;20026;-80
2022/07/17 05:49:11;;;;;;;0.00;0.00;;;;;;;;;;6208108;28;20388;-80
2022/07/17 05:52:11;;;;;;;0.90;0.90;;;;;;;;;;6226581;28;20037;-80
2022/07/17 05:55:12;;;;;;;0.87;0.87;;;;;;;;;;6216241;28;20025;-80
2022/07/17 05:58:12;;;;;;;1.23;1.13;;;;;;;;;;6198259;28;20023;-80
2022/07/17 06:01:12;;;;;;;0.00;0.00;;;;;;;;;;6220937;28;20026;-81
2022/07/17 06:04:12;;;;;;;1.80;1.23;;;;;;;;;;6195968;28;20157;-81
2022/07/17 06:07:12;;;;;;;0.00;0.00;;;;;;;;;;6201673;28;20451;-81
2022/07/17 06:10:13;;;;;;;3.00;0.93;;;;;;;;;;6207873;28;20425;-81
2022/07/17 06:13:13;;;;;;;0.80;0.80;;;;;;;;;;6208848;28;20044;-82
2022/07/17 06:16:13;;;;;;;0.10;0.10;;;;;;;;;;6211345;28;20657;-81
2022/07/17 06:19:13;;;;;;;0.10;0.10;;;;;;;;;;6213911;28;20023;-82
2022/07/17 06:22:14;;;;;;;0.10;0.10;;;;;;;;;;6211067;28;20030;-82
2022/07/17 06:25:14;;;;;;;;;;;;;;;;;;6202263;28;20027;-81
2022/07/17 06:28:14;;;;;;;0.75;0.32;;;;;;;;;;6202243;28;19914;-81
2022/07/17 06:31:15;;;;;;;0.00;0.00;;;;;;;;;;6214142;28;20060;-82
2022/07/17 06:34:15;;;;;;;0.10;0.10;;;;;;;;;;6210543;28;20165;-81
2022/07/17 06:37:15;;;;;;;;;;;;;;;;;;6199789;28;20030;-82
2022/07/17 06:40:15;;;;;;;0.55;0.30;;;;;;;;;;6197337;28;19913;-81
2022/07/17 06:43:15;;;;;;;;;;;;;;;;;;6198293;28;20054;-81
2022/07/17 06:46:15;;;;;;;0.00;0.00;;;;;;;;;;6213185;28;19980;-82
2022/07/17 06:49:16;;;;;;;;;;;;;;;;;;6202066;28;20618;-81
2022/07/17 06:52:16;;;;;;;0.10;0.10;;;;;;;;;;6205007;28;19918;-81
2022/07/17 06:55:16;;;;;;;0.10;0.10;;;;;;;;;;6202502;28;20108;-82
2022/07/17 06:58:16;;;;;;;0.10;0.10;;;;;;;;;;6203466;28;20025;-81
2022/07/17 07:01:17;;;;;;;0.10;0.10;;;;;;;;;;6206022;28;20030;-81
2022/07/17 07:04:17;;;;;;;0.20;0.20;;;;;;;;;;6197311;28;20034;-82
2022/07/17 07:07:17;;;;;;;3.33;1.97;;;;;;;;;;6200984;28;19998;-81
2022/07/17 07:10:18;;;;;;;0.00;0.00;;;;;;;;;;6208410;28;20486;-81
2022/07/17 07:13:18;;;;;;;0.10;0.10;;;;;;;;;;6201885;28;20418;-81
2022/07/17 07:16:18;;;;;;;0.20;0.20;;;;;;;;;;6204542;28;20130;-81
2022/07/17 07:19:18;;;;;;;0.10;0.10;;;;;;;;;;6204238;28;20390;-81
2022/07/17 07:22:19;;;;;;;0.07;0.07;;;;;;;;;;6198209;28;20019;-81
2022/07/17 07:25:19;;;;;;;0.10;0.10;;;;;;;;;;6200577;28;20045;-81
2022/07/17 07:28:19;;;;;;;0.00;0.00;;;;;;;;;;6207115;28;20459;-81
2022/07/17 07:31:19;;;;;;;0.20;0.20;;;;;;;;;;6212375;28;20292;-82
2022/07/17 07:34:20;;;;;;;0.10;0.10;;;;;;;;;;6193500;28;20041;-81
2022/07/17 07:37:20;;;;;;;0.00;0.00;;;;;;;;;;6204927;28;20285;-81
2022/07/17 07:40:20;;;;;;;3.22;1.90;;;;;;;;;;6197069;28;20680;-79
2022/07/17 07:43:21;;;;;;;0.15;0.15;;;;;;;;;;6197421;28;20061;-79
2022/07/17 07:46:22;;;;;;;8.83;0.30;;;;;;;;;;6205498;28;20022;-81
2022/07/17 07:49:22;;;;;;;0.20;0.20;;;;;;;;;;6194037;28;20042;-82
2022/07/17 07:52:23;;;;;;;0.00;0.00;;;;;;;;;;6213149;28;20517;-81
2022/07/17 07:55:23;;;;;;;0.00;0.00;;;;;;;;;;6199372;28;20382;-81
2022/07/17 07:58:23;;;;;;;0.10;0.10;;;;;;;;;;6198765;28;20494;-81
2022/07/17 08:01:24;;;;;;;0.00;0.00;;;;;;;;;;6205215;28;20038;-81
2022/07/17 08:04:24;;;;;;;0.30;0.30;;;;;;;;;;6203630;28;20128;-81
2022/07/17 08:07:28;;;;;;;0.00;0.00;;;;;;;;;;6206826;28;20108;-81
2022/07/17 08:10:28;;;;;;;0.00;0.00;;;;;;;;;;6201312;28;20812;-81
2022/07/17 08:13:28;;;;;;;0.65;0.65;;;;;;;;;;6197618;28;20041;-81
2022/07/17 08:16:28;;;;;;;0.63;0.60;;;;;;;;;;6199184;28;20049;-81
2022/07/17 08:19:28;;;;;;;;;;;;;;;;;;6204807;28;20022;-81
2022/07/17 08:22:29;;;;;;;0.00;0.00;;;;;;;;;;6216635;28;19905;-81
2022/07/17 08:25:29;;;;;;;;;;;;;;;;;;6200545;28;20470;-80
2022/07/17 08:28:29;;;;;;;0.05;0.05;;;;;;;;;;6219994;28;19906;-80
2022/07/17 08:31:29;;;;;;;0.00;0.00;;;;;;;;;;6204534;28;20027;-80
2022/07/17 08:34:29;;;;;;;0.00;0.00;;;;;;;;;;6205401;28;20510;-80
2022/07/17 08:37:30;;;;;;;0.37;0.37;;;;;;;;;;6211207;28;20030;-80
2022/07/17 08:40:31;;;;;;;0.03;0.03;;;;;;;;;;6206804;28;20018;-80
2022/07/17 08:43:32;;;;;;;0.00;0.00;;;;;;;;;;6198461;28;20026;-79
2022/07/17 08:46:36;;;;;;;0.00;0.00;;;;;;;;;;6202534;28;20455;-81
2022/07/17 08:49:38;;;;;;;0.03;0.03;;;;;;;;;;6214053;28;20018;-81
2022/07/17 08:52:40;;;;;;;0.17;0.10;;;;;;;;;;6202305;28;20045;-80
2022/07/17 08:55:41;;;;;;;0.00;0.00;;;;;;;;;;6204209;28;20093;-81
2022/07/17 08:58:41;;;;;;;0.00;0.00;;;;;;;;;;6206296;28;20019;-81
2022/07/17 09:01:41;;;;;;;0.00;0.00;;;;;;;;;;6203243;28;20053;-80
2022/07/17 09:04:41;;;;;;;0.00;0.00;;;;;;;;;;6203178;28;20034;-80
2022/07/17 09:07:45;;;;;;;0.00;0.00;;;;;;;;;;6208368;28;20041;-81
2022/07/17 09:10:46;;;;;;;0.10;0.10;;;;;;;;;;6204239;28;20087;-81
2022/07/17 09:13:46;;;;;;;0.00;0.00;;;;;;;;;;6203131;28;20014;-80
2022/07/17 09:17:06;;;;;;;0.00;0.00;;;;;;;;;;6206322;28;20023;-81
2022/07/17 09:20:12;;;;;;;0.10;0.10;;;;;;;;;;6206477;28;20025;-81
2022/07/17 09:23:12;;;;;;;3.05;0.45;;;;;;;;;;6211237;28;20453;-81
2022/07/17 09:26:13;;;;;;;0.00;0.00;;;;;;;;;;6203382;28;20011;-80
2022/07/17 09:29:13;;;;;;;0.00;0.00;;;;;;;;;;6206500;28;20056;-81
2022/07/17 09:32:16;;;;;;;2.03;1.10;;;;;;;;;;6206204;28;20376;-81
2022/07/17 09:35:16;;;;;;;0.25;0.20;;;;;;;;;;6205597;28;20442;-81
2022/07/17 09:38:26;;;;;;;0.40;0.40;;;;;;;;;;6203121;28;20084;-81
2022/07/17 09:41:29;;;;;;;0.10;0.10;;;;;;;;;;6197910;28;20110;-81
2022/07/17 09:44:30;;;;;;;0.13;0.13;;;;;;;;;;6216185;28;20022;-80
2022/07/17 09:47:31;;;;;;;0.23;0.23;;;;;;;;;;6210935;28;20050;-80
2022/07/17 09:50:31;;;;;;;0.00;0.00;;;;;;;;;;6204200;28;20018;-80
2022/07/17 09:53:32;;;;;;;0.47;0.47;;;;;;;;;;6209182;28;20113;-81
2022/07/17 09:56:34;;;;;;;0.00;0.00;;;;;;;;;;6205558;28;20026;-81
2022/07/17 09:59:35;;;;;;;0.00;0.00;;;;;;;;;;6206614;28;20030;-80
2022/07/17 10:02:35;;;;;;;;;;;;;;;;;;6205971;28;20022;-80
2022/07/17 10:05:36;;;;;;;0.38;0.35;;;;;;;;;;6221398;28;19944;-80
2022/07/17 10:08:37;;;;;;;0.00;0.00;;;;;;;;;;6203392;28;20385;-80
2022/07/17 10:11:38;;;;;;;0.00;0.00;;;;;;;;;;6206510;28;20018;-80
2022/07/17 10:14:41;;;;;;;;;;;;;;;;;;6200100;28;20555;-80
2022/07/17 10:17:41;;;;;;;0.20;0.20;;;;;;;;;;6202187;28;20333;-81
2022/07/17 10:20:42;;;;;;;0.00;0.00;;;;;;;;;;6209540;28;20423;-81
2022/07/17 10:24:02;;;;;;;0.00;0.00;;;;;;;;;;6201233;28;20030;-81
2022/07/17 10:27:02;;;;;;;0.00;0.00;;;;;;;;;;6195524;28;20049;-81
2022/07/17 10:30:03;;;;;;;0.10;0.10;;;;;;;;;;6200413;28;20022;-81
2022/07/17 10:33:06;;;;;;;0.00;0.00;;;;;;;;;;6204028;28;20018;-80
2022/07/17 10:36:06;;;;;;;0.00;0.00;;;;;;;;;;6221793;28;20069;-81
2022/07/17 10:39:17;;;;;;;0.00;0.00;;;;;;;;;;6214397;28;20086;-81
2022/07/17 10:42:36;;;;;;;0.00;0.00;;;;;;;;;;6196076;28;20030;-81
2022/07/17 10:45:39;;;;;;;0.10;0.10;;;;;;;;;;6203152;28;20046;-81
2022/07/17 10:48:39;;;;;;;0.10;0.10;;;;;;;;;;6201926;28;20137;-81
2022/07/17 10:51:40;;;;;;;0.22;0.22;;;;;;;;;;6201868;28;20075;-81
2022/07/17 10:54:40;;;;;;;0.00;0.00;;;;;;;;;;6204515;28;20034;-81
2022/07/17 10:57:41;;;;;;;0.00;0.00;;;;;;;;;;6206474;28;20060;-81
2022/07/17 11:00:41;;;;;;;0.00;0.00;;;;;;;;;;6201822;28;20027;-81
2022/07/17 11:03:49;;;;;;;0.00;0.00;;;;;;;;;;6202785;28;20061;-80
2022/07/17 11:06:49;;;;;;;0.00;0.00;;;;;;;;;;6200708;28;20034;-81
2022/07/17 11:09:50;;;;;;;0.30;0.30;;;;;;;;;;6202622;28;20101;-81
2022/07/17 11:12:50;;;;;;;0.00;0.00;;;;;;;;;;6207049;28;20010;-81
2022/07/17 11:15:50;;;;;;;0.00;0.00;;;;;;;;;;6203113;28;20534;-81
2022/07/17 11:18:50;;;;;;;0.07;0.07;;;;;;;;;;6199170;28;20054;-81
2022/07/17 11:21:51;;;;;;;0.00;0.00;;;;;;;;;;6207269;28;20030;-81
2022/07/17 11:24:51;;;;;;;0.00;0.00;;;;;;;;;;6199399;28;20488;-81
2022/07/17 11:27:52;;;;;;;0.00;0.00;;;;;;;;;;6206690;28;20124;-81
2022/07/17 11:30:52;;;;;;;0.00;0.00;;;;;;;;;;6206679;28;20069;-81
2022/07/17 11:33:52;;;;;;;0.03;0.03;;;;;;;;;;6198760;28;20022;-81
2022/07/17 11:36:58;;;;;;;0.00;0.00;;;;;;;;;;6202240;28;20057;-81
2022/07/17 11:39:58;;;;;;;0.00;0.00;;;;;;;;;;6201179;28;20042;-81
2022/07/17 11:43:04;;;;;;;0.00;0.00;;;;;;;;;;6200353;28;20889;-81
2022/07/17 11:46:04;;;;;;;0.10;0.10;;;;;;;;;;6203233;28;20823;-81
2022/07/17 11:49:04;;;;;;;0.00;0.00;;;;;;;;;;6201836;28;20031;-81
2022/07/17 11:52:12;;;;;;;0.00;0.00;;;;;;;;;;6205141;28;20077;-81
2022/07/17 11:55:13;;;;;;;0.00;0.00;;;;;;;;;;6202873;28;20360;-81
2022/07/17 11:58:13;;;;;;;0.00;0.00;;;;;;;;;;6202038;28;20033;-81
2022/07/17 12:01:14;;;;;;;0.10;0.10;;;;;;;;;;6204979;28;20459;-81
2022/07/17 12:04:15;;;;;;;0.00;0.00;;;;;;;;;;6207398;28;20106;-81
2022/07/17 12:07:15;;;;;;;0.00;0.00;;;;;;;;;;6202751;28;20030;-81
2022/07/17 12:10:21;;;;;;;0.00;0.00;;;;;;;;;;6201990;28;20018;-82
2022/07/17 12:13:21;;;;;;;0.00;0.00;;;;;;;;;;6208850;28;20022;-81
2022/07/17 12:16:29;;;;;;;0.73;0.63;;;;;;;;;;6200352;28;20042;-82
2022/07/17 12:19:29;;;;;;;1.90;0.75;;;;;;;;;;6203070;28;20031;-81
2022/07/17 12:22:31;;;;;;;0.00;0.00;;;;;;;;;;6199245;28;20018;-81
2022/07/17 12:25:31;;;;;;;1.77;0.52;;;;;;;;;;6200249;28;20085;-81
2022/07/17 12:28:31;;;;;;;0.00;0.00;;;;;;;;;;6212326;28;20531;-80
2022/07/17 12:31:32;;;;;;;0.00;0.00;;;;;;;;;;6205310;28;20030;-80
2022/07/17 12:34:33;;;;;;;1.13;0.27;;;;;;;;;;6204873;28;20053;-80
2022/07/17 12:37:33;;;;;;;0.00;0.00;;;;;;;;;;6201115;28;20030;-80
2022/07/17 12:40:33;;;;;;;0.00;0.00;;;;;;;;;;6204298;28;20394;-81
2022/07/17 12:43:33;;;;;;;0.00;0.00;;;;;;;;;;6203751;28;20072;-81
2022/07/17 12:46:33;;;;;;;0.00;0.00;;;;;;;;;;6202215;28;20030;-81
2022/07/17 12:49:34;;;;;;;;;;;;;;;;;;6199934;28;20030;-81
2022/07/17 12:52:34;;;;;;;0.05;0.05;;;;;;;;;;6216006;28;20008;-81
2022/07/17 12:55:34;;;;;;;;;;;;;;;;;;6205110;28;20120;-81
2022/07/17 12:58:34;;;;;;;0.15;0.15;;;;;;;;;;6206814;28;19940;-81
2022/07/17 13:01:35;;;;;;;;;;;;;;;;;;6206093;28;20482;-81
2022/07/17 13:04:35;;;;;;;0.00;0.00;;;;;;;;;;6224537;28;20005;-81
2022/07/17 13:07:35;;;;;;;0.00;0.00;;;;;;;;;;6202372;28;20084;-81
2022/07/17 13:10:35;;;;;;;0.00;0.00;;;;;;;;;;6202315;28;20042;-81
2022/07/17 13:13:36;;;;;;;0.20;0.20;;;;;;;;;;6203185;28;20018;-81
2022/07/17 13:16:36;;;;;;;0.20;0.20;;;;;;;;;;6198867;28;20037;-81
2022/07/17 13:19:36;;;;;;;0.00;0.00;;;;;;;;;;6204634;28;20018;-81
2022/07/17 13:22:37;;;;;;;0.00;0.00;;;;;;;;;;6201181;28;20022;-81
2022/07/17 13:25:38;;;;;;;0.00;0.00;;;;;;;;;;6203317;28;20034;-81
2022/07/17 13:28:38;;;;;;;0.00;0.00;;;;;;;;;;6215751;28;20030;-81
2022/07/17 13:31:38;;;;;;;0.00;0.00;;;;;;;;;;6204617;28;20031;-81
2022/07/17 13:34:39;;;;;;;0.00;0.00;;;;;;;;;;6202715;28;20133;-81
2022/07/17 13:37:39;;;;;;;0.20;0.20;;;;;;;;;;6206314;28;20088;-81
2022/07/17 13:40:39;;;;;;;0.20;0.20;;;;;;;;;;6207867;28;20265;-81
2022/07/17 13:43:39;;;;;;;0.00;0.00;;;;;;;;;;6204504;28;20046;-81
2022/07/17 13:46:40;;;;;;;0.00;0.00;;;;;;;;;;6205515;28;20046;-81
2022/07/17 13:49:40;;;;;;;0.00;0.00;;;;;;;;;;6203103;28;20014;-81
2022/07/17 13:52:40;;;;;;;0.07;0.07;;;;;;;;;;6202519;28;20085;-81
2022/07/17 13:55:41;;;;;;;0.00;0.00;;;;;;;;;;6202602;28;20022;-81
2022/07/17 13:58:41;;;;;;;0.43;0.33;;;;;;;;;;6198094;28;20112;-81
2022/07/17 14:01:41;;;;;;;0.20;0.20;;;;;;;;;;6195719;28;20026;-81
2022/07/17 14:04:41;;;;;;;0.00;0.00;;;;;;;;;;6200683;28;20027;-81
2022/07/17 14:07:42;;;;;;;9.13;1.20;;;;;;;;;;6204122;28;20032;-81
2022/07/17 14:10:43;;;;;;;0.00;0.00;;;;;;;;;;6210504;28;20487;-81
2022/07/17 14:13:43;;;;;;;0.00;0.00;;;;;;;;;;6207507;28;20018;-81
2022/07/17 14:16:43;;;;;;;0.00;0.00;;;;;;;;;;6207073;28;20030;-81
2022/07/17 14:19:44;;;;;;;0.00;0.00;;;;;;;;;;6206798;28;20281;-81
2022/07/17 14:22:44;;;;;;;0.52;0.17;;;;;;;;;;6213672;28;20113;-81
2022/07/17 14:25:45;;;;;;;0.00;0.00;;;;;;;;;;6201346;28;20026;-81
2022/07/17 14:28:45;;;;;;;0.00;0.00;;;;;;;;;;6234301;28;20041;-81
2022/07/17 14:31:45;;;;;;;0.00;0.00;;;;;;;;;;6206500;28;20053;-81
2022/07/17 14:34:45;;;;;;;0.20;0.20;;;;;;;;;;6193927;28;20060;-81
2022/07/17 14:37:46;;;;;;;0.90;0.63;;;;;;;;;;6199964;28;20019;-81
2022/07/17 14:40:46;;;;;;;0.05;0.05;;;;;;;;;;6204123;28;20003;-81
2022/07/17 14:43:46;;;;;;;;;;;;;;;;;;6219262;28;20064;-81
2022/07/17 14:46:46;;;;;;;0.00;0.00;;;;;;;;;;6212738;28;19914;-81
2022/07/17 14:49:47;;;;;;;;;;;;;;;;;;6201365;28;20001;-82
2022/07/17 14:52:47;;;;;;;0.00;0.00;;;;;;;;;;6216797;28;20321;-81
2022/07/17 14:55:47;;;;;;;0.00;0.00;;;;;;;;;;6207235;28;20018;-81
2022/07/17 14:58:47;;;;;;;0.13;0.13;;;;;;;;;;6199437;28;20022;-81
2022/07/17 15:01:47;;;;;;;0.10;0.10;;;;;;;;;;6201690;28;20022;-80
2022/07/17 15:04:48;;;;;;;;;;;;;;;;;;6197743;28;20165;-81
2022/07/17 15:07:48;;;;;;;0.00;0.00;;;;;;;;;;6214376;28;19906;-81
2022/07/17 15:10:48;;;;;;;;;;;;;;;;;;6199323;28;20041;-81
2022/07/17 15:13:48;;;;;;;0.00;0.00;;;;;;;;;;6198622;28;19933;-81
2022/07/17 15:16:48;;;;;;;;;;;;;;;;;;6201017;28;20022;-81
2022/07/17 15:19:49;;;;;;;0.00;0.00;;;;;;;;;;6215705;28;19910;-81
2022/07/17 15:22:49;;;;;;;;;;;;;;;;;;6188629;28;20026;-80
2022/07/17 15:25:49;;;;;;;0.30;0.15;;;;;;;;;;6201562;28;19898;-80
2022/07/17 15:28:49;;;;;;;0.77;0.77;;;;;;;;;;6200119;28;20569;-81
2022/07/17 15:31:49;;;;;;;0.32;0.20;;;;;;;;;;6192696;28;20029;-80
2022/07/17 15:34:50;;;;;;;1.83;0.43;;;;;;;;;;6202031;28;20042;-80
2022/07/17 15:37:50;;;;;;;0.00;0.00;;;;;;;;;;6216572;28;20042;-80
2022/07/17 15:40:50;;;;;;;0.00;0.00;;;;;;;;;;6198109;28;20454;-80
2022/07/17 15:43:50;;;;;;;0.07;0.07;;;;;;;;;;6197867;28;20018;-80
2022/07/17 15:46:50;;;;;;;0.00;0.00;;;;;;;;;;6204577;28;20108;-81
2022/07/17 15:49:51;;;;;;;0.13;0.13;;;;;;;;;;6201482;28;20037;-81
2022/07/17 15:52:51;;;;;;;0.60;0.43;;;;;;;;;;6209193;28;20030;-81
2022/07/17 15:55:51;;;;;;;0.00;0.00;;;;;;;;;;6196099;28;20425;-80
2022/07/17 15:58:51;;;;;;;0.10;0.10;;;;;;;;;;6207433;28;20033;-80
2022/07/17 16:01:52;;;;;;;0.00;0.00;;;;;;;;;;6205465;28;20025;-81
2022/07/17 16:04:52;;;;;;;0.63;0.63;;;;;;;;;;6212865;28;20033;-80
2022/07/17 16:07:54;;;;;;;0.00;0.00;;;;;;;;;;6214815;28;20454;-80
2022/07/17 16:10:54;;;;;;;0.03;0.03;;;;;;;;;;6199264;28;20153;-80
2022/07/17 16:13:54;;;;;;;0.00;0.00;;;;;;;;;;6206838;28;20026;-80
2022/07/17 16:16:54;;;;;;;0.00;0.00;;;;;;;;;;6193131;28;20034;-80
2022/07/17 16:19:55;;;;;;;0.13;0.13;;;;;;;;;;6196088;28;20115;-80
2022/07/17 16:22:55;;;;;;;0.00;0.00;;;;;;;;;;6195598;28;20033;-80
2022/07/17 16:25:56;;;;;;;0.00;0.00;;;;;;;;;;6194542;28;20394;-80
2022/07/17 16:28:56;;;;;;;0.10;0.10;;;;;;;;;;6197068;28;20022;-80
2022/07/17 16:31:57;;;;;;;0.80;0.75;;;;;;;;;;6197353;28;20082;-80
2022/07/17 16:34:57;;;;;;;0.00;0.00;;;;;;;;;;6200398;28;20046;-80
2022/07/17 16:37:58;;;;;;;0.03;0.03;;;;;;;;;;6199622;28;20426;-80
2022/07/17 16:40:58;;;;;;;0.63;0.43;;;;;;;;;;6190796;28;20027;-80
2022/07/17 16:43:59;;;;;;;0.00;0.00;;;;;;;;;;6203678;28;20018;-80
2022/07/17 16:46:59;;;;;;;0.00;0.00;;;;;;;;;;6202433;28;20026;-80
2022/07/17 16:49:59;;;;;;;0.00;0.00;;;;;;;;;;6205765;28;20007;-79
2022/07/17 16:52:59;;;;;;;0.00;0.00;;;;;;;;;;6216169;28;20033;-80
2022/07/17 16:55:59;;;;;;;0.10;0.10;;;;;;;;;;6204579;28;20050;-80
2022/07/17 16:59:00;;;;;;;0.00;0.00;;;;;;;;;;6202953;28;20038;-80
2022/07/17 17:02:01;;;;;;;0.00;0.00;;;;;;;;;;6198568;28;20027;-80
2022/07/17 17:05:01;;;;;;;0.03;0.03;;;;;;;;;;6206080;28;20044;-80
2022/07/17 17:08:04;;;;;;;0.00;0.00;;;;;;;;;;6204086;28;20412;-81
2022/07/17 17:11:05;;;;;;;0.00;0.00;;;;;;;;;;6203034;28;20037;-80
2022/07/17 17:14:05;;;;;;;0.00;0.00;;;;;;;;;;6203830;28;20068;-80
2022/07/17 17:17:05;;;;;;;0.00;0.00;;;;;;;;;;6199329;28;20017;-80
2022/07/17 17:20:06;;;;;;;0.00;0.00;;;;;;;;;;6197184;28;20026;-80
2022/07/17 17:23:08;;;;;;;0.00;0.00;;;;;;;;;;6207008;28;20117;-80
2022/07/17 17:26:09;;;;;;;0.13;0.13;;;;;;;;;;6215855;28;20025;-80
2022/07/17 17:29:09;;;;;;;0.00;0.00;;;;;;;;;;6192656;28;20033;-80
2022/07/17 17:32:09;;;;;;;0.00;0.00;;;;;;;;;;6188483;28;20034;-80
2022/07/17 17:35:09;;;;;;;0.00;0.00;;;;;;;;;;6199270;28;20038;-80
2022/07/17 17:38:10;;;;;;;0.47;0.30;;;;;;;;;;6193840;28;20046;-80
2022/07/17 17:41:10;;;;;;;0.00;0.00;;;;;;;;;;6199113;28;20055;-80
2022/07/17 17:44:10;;;;;;;0.00;0.00;;;;;;;;;;6196666;28;20052;-80
2022/07/17 17:47:10;;;;;;;0.00;0.00;;;;;;;;;;6194719;28;20113;-80
2022/07/17 17:50:11;;;;;;;0.00;0.00;;;;;;;;;;6211605;28;20116;-80
2022/07/17 17:53:11;;;;;;;0.00;0.00;;;;;;;;;;6205257;28;20050;-81
2022/07/17 17:56:12;;;;;;;0.10;0.10;;;;;;;;;;6203649;28;20026;-81
2022/07/17 17:59:12;;;;;;;0.20;0.20;;;;;;;;;;6199569;28;20065;-82
2022/07/17 18:02:13;;;;;;;0.00;0.00;;;;;;;;;;6187220;28;20026;-79
2022/07/17 18:05:13;;;;;;;0.77;0.43;;;;;;;;;;6210667;28;20027;-79
2022/07/17 18:08:13;;;;;;;1.13;1.03;;;;;;;;;;6211378;28;20053;-79